createdAt,value
2022-12-08T00:02:27.134Z,10.13
2022-12-08T00:07:47.347Z,9.73
2022-12-08T00:12:49.007Z,9.10
2022-12-08T00:17:50.631Z,9.30
2022-12-08T00:22:52.270Z,9.38
2022-12-08T00:27:53.945Z,8.48
2022-12-08T00:32:55.613Z,9.05
2022-12-08T00:38:00.838Z,8.10
2022-12-08T00:43:02.927Z,8.85
2022-12-08T00:48:04.984Z,9.23
2022-12-08T00:53:06.701Z,9.00
2022-12-08T00:58:08.693Z,9.02
2022-12-08T01:03:11.441Z,8.43
2022-12-08T01:08:13.257Z,8.57
2022-12-08T01:13:15.328Z,9.25
2022-12-08T01:18:17.050Z,9.23
2022-12-08T01:23:18.843Z,9.10
2022-12-08T01:28:20.559Z,9.18
2022-12-08T01:33:22.674Z,9.48
2022-12-08T01:38:24.401Z,8.55
2022-12-08T01:43:26.168Z,8.35
2022-12-08T01:48:28.042Z,8.40
2022-12-08T01:53:35.141Z,8.63
2022-12-08T01:58:40.072Z,8.50
2022-12-08T02:03:50.102Z,8.80
2022-12-08T02:08:52.759Z,8.10
2022-12-08T02:13:56.351Z,7.90
2022-12-08T02:19:34.997Z,7.65
2022-12-08T02:24:44.485Z,7.97
2022-12-08T02:30:02.473Z,7.38
2022-12-08T02:35:26.084Z,7.93
2022-12-08T02:40:35.296Z,8.30
2022-12-08T02:45:44.430Z,8.20
2022-12-08T02:50:46.294Z,8.23
2022-12-08T02:56:05.667Z,7.95
2022-12-08T03:01:34.362Z,7.82
2022-12-08T03:06:48.016Z,8.68
2022-12-08T03:11:54.114Z,8.02
2022-12-08T03:16:58.437Z,8.48
2022-12-08T03:22:05.121Z,8.65
2022-12-08T03:32:51.193Z,8.18
2022-12-08T03:38:02.926Z,9.07
2022-12-08T03:43:04.932Z,8.27
2022-12-08T03:48:06.804Z,9.70
2022-12-08T03:53:08.764Z,9.25
2022-12-08T03:58:10.678Z,10.15
2022-12-08T04:03:12.340Z,9.10
2022-12-08T04:08:14.242Z,9.23
2022-12-08T04:13:15.991Z,8.82
2022-12-08T04:18:18.611Z,8.93
2022-12-08T04:23:20.332Z,8.90
2022-12-08T04:28:22.122Z,8.43
2022-12-08T04:33:23.986Z,8.50
2022-12-08T04:38:26.177Z,8.57
2022-12-08T04:43:28.135Z,8.48
2022-12-08T04:48:30.135Z,8.65
2022-12-08T04:53:32.858Z,8.15
2022-12-08T04:58:34.854Z,8.18
2022-12-08T05:03:36.963Z,9.02
2022-12-08T05:08:38.649Z,8.63
2022-12-08T05:13:40.599Z,8.48
2022-12-08T05:18:43.399Z,7.55
2022-12-08T05:23:45.116Z,7.00
2022-12-08T05:28:46.896Z,8.00
2022-12-08T05:33:50.153Z,7.65
2022-12-08T05:38:51.902Z,8.18
2022-12-08T05:43:53.625Z,7.18
2022-12-08T05:48:55.275Z,7.30
2022-12-08T05:53:57.421Z,7.20
2022-12-08T05:58:59.264Z,7.45
2022-12-08T06:04:03.223Z,8.60
2022-12-08T06:09:06.440Z,7.20
2022-12-08T06:14:11.834Z,7.38
2022-12-08T06:19:13.644Z,6.90
2022-12-08T06:24:15.397Z,7.53
2022-12-08T06:29:17.179Z,7.53
2022-12-08T06:34:19.041Z,7.15
2022-12-08T06:39:20.712Z,8.20
2022-12-08T06:44:22.489Z,7.38
2022-12-08T06:49:24.596Z,6.93
2022-12-08T06:54:26.649Z,7.50
2022-12-08T06:59:28.432Z,6.82
2022-12-08T07:04:30.162Z,7.10
2022-12-08T07:09:31.814Z,6.80
2022-12-08T07:14:33.599Z,6.47
2022-12-08T07:19:35.267Z,7.50
2022-12-08T07:24:37.025Z,7.80
2022-12-08T07:29:38.689Z,8.07
2022-12-08T07:34:40.404Z,6.90
2022-12-08T07:39:42.109Z,6.75
2022-12-08T07:44:43.766Z,6.05
2022-12-08T07:49:45.439Z,6.45
2022-12-08T07:54:47.616Z,6.63
2022-12-08T07:59:49.363Z,7.90
2022-12-08T08:04:51.872Z,7.18
2022-12-08T08:09:53.756Z,7.28
2022-12-08T08:14:55.483Z,6.68
2022-12-08T08:19:57.315Z,6.65
2022-12-08T08:24:59.430Z,6.47
2022-12-08T08:30:01.154Z,6.97
2022-12-08T08:35:03.441Z,6.85
2022-12-08T08:40:06.051Z,6.82
2022-12-08T08:45:08.291Z,6.43
2022-12-08T08:50:10.087Z,7.32
2022-12-08T08:55:12.032Z,6.93
2022-12-08T09:00:14.662Z,6.53
2022-12-08T09:05:16.611Z,7.50
2022-12-08T09:10:18.472Z,6.65
2022-12-08T09:15:20.913Z,6.95
2022-12-08T09:20:22.664Z,7.03
2022-12-08T09:25:24.505Z,6.75
2022-12-08T09:30:26.483Z,6.65
2022-12-08T09:35:28.341Z,6.53
2022-12-08T09:40:37.338Z,6.68
2022-12-08T09:45:39.911Z,6.45
2022-12-08T09:50:48.603Z,7.10
2022-12-08T09:56:03.186Z,6.72
2022-12-08T10:01:04.932Z,6.60
2022-12-08T10:06:18.911Z,6.38
2022-12-08T10:11:32.586Z,6.38
2022-12-08T10:16:39.602Z,6.20
2022-12-08T10:21:41.518Z,7.15
2022-12-08T10:26:43.527Z,6.90
2022-12-08T10:31:45.610Z,6.95
2022-12-08T10:36:52.720Z,7.32
2022-12-08T10:41:54.507Z,6.70
2022-12-08T10:46:56.520Z,6.38
2022-12-08T10:51:58.916Z,6.97
2022-12-08T10:57:00.667Z,6.13
2022-12-08T11:02:02.550Z,5.60
2022-12-08T11:07:11.334Z,5.07
2022-12-08T11:12:15.244Z,5.82
2022-12-08T11:17:22.777Z,6.72
2022-12-08T11:22:26.619Z,5.72
2022-12-08T11:27:28.818Z,6.40
2022-12-08T11:32:30.538Z,6.38
2022-12-08T11:37:39.198Z,6.68
2022-12-08T11:43:25.926Z,5.68
2022-12-08T11:49:06.381Z,6.28
2022-12-08T11:54:28.751Z,6.40
2022-12-08T11:59:39.646Z,6.63
2022-12-08T12:04:50.848Z,6.32
2022-12-08T12:10:08.024Z,6.82
2022-12-08T12:15:27.840Z,6.88
2022-12-08T12:20:37.319Z,6.57
2022-12-08T12:25:54.127Z,6.53
2022-12-08T12:31:03.718Z,6.28
2022-12-08T12:36:07.776Z,5.95
2022-12-08T12:41:12.261Z,6.18
2022-12-08T12:46:22.834Z,6.55
2022-12-08T12:51:45.058Z,6.03
2022-12-08T12:56:55.303Z,5.75
2022-12-08T13:01:57.438Z,5.72
2022-12-08T13:06:59.958Z,6.28
2022-12-08T13:12:12.870Z,6.28
2022-12-08T13:17:24.465Z,6.65
2022-12-08T13:22:51.014Z,6.07
2022-12-08T13:38:25.830Z,7.40
2022-12-08T13:43:55.803Z,7.05
2022-12-08T13:51:23.985Z,6.50
2022-12-08T14:00:08.027Z,6.85
2022-12-08T14:05:19.056Z,7.78
2022-12-08T14:10:27.770Z,8.63
2022-12-08T14:15:37.196Z,7.88
2022-12-08T14:21:05.068Z,9.07
2022-12-08T14:26:05.353Z,8.40
2022-12-08T14:31:08.468Z,9.02
2022-12-08T14:36:14.707Z,8.75
2022-12-08T14:41:16.380Z,8.10
2022-12-08T14:46:23.181Z,8.55
2022-12-08T14:51:32.285Z,8.45
2022-12-08T14:56:51.206Z,8.32
2022-12-08T15:02:10.161Z,8.70
2022-12-08T15:07:16.366Z,8.85
2022-12-08T15:12:27.059Z,8.85
2022-12-08T15:17:34.616Z,8.73
2022-12-08T15:22:36.284Z,9.40
2022-12-08T15:27:47.056Z,9.18
2022-12-08T15:32:54.230Z,8.70
2022-12-08T15:37:56.131Z,8.70
2022-12-08T15:42:57.891Z,8.93
2022-12-08T15:47:59.645Z,9.10
2022-12-08T15:53:01.338Z,9.82
2022-12-08T15:58:52.366Z,10.20
2022-12-08T16:09:00.562Z,9.23
2022-12-08T16:15:01.450Z,9.73
2022-12-08T16:19:34.417Z,11.05
2022-12-08T16:24:36.246Z,10.30
2022-12-08T16:29:38.079Z,10.63
2022-12-08T16:34:39.819Z,10.65
2022-12-08T16:39:45.723Z,10.45
2022-12-08T16:44:47.910Z,11.18
2022-12-08T16:49:49.600Z,9.25
2022-12-08T16:54:51.569Z,10.75
2022-12-08T16:59:53.523Z,10.10
2022-12-08T17:04:55.261Z,10.57
2022-12-08T17:09:57.324Z,9.52
2022-12-08T17:14:59.833Z,10.20
2022-12-08T17:20:05.645Z,9.77
2022-12-08T17:25:08.182Z,9.97
2022-12-08T17:30:12.627Z,8.75
2022-12-08T17:35:15.495Z,9.18
2022-12-08T17:40:17.278Z,8.55
2022-12-08T17:45:19.636Z,9.32
2022-12-08T17:50:21.438Z,8.90
2022-12-08T17:55:23.624Z,9.32
2022-12-08T18:00:26.382Z,8.98
2022-12-08T18:05:28.771Z,9.35
2022-12-08T18:10:30.787Z,9.90
2022-12-08T18:15:37.548Z,8.98
2022-12-08T18:20:41.094Z,9.40
2022-12-08T18:25:43.543Z,9.60
2022-12-08T18:30:46.084Z,9.43
2022-12-08T18:35:48.236Z,9.93
2022-12-08T18:40:50.588Z,8.52
2022-12-08T18:46:02.394Z,9.07
2022-12-08T18:51:10.275Z,9.73
2022-12-08T18:56:21.544Z,10.30
2022-12-08T19:01:23.805Z,10.82
2022-12-08T19:06:27.235Z,11.48
2022-12-08T19:11:29.916Z,10.70
2022-12-08T19:16:32.244Z,10.38
2022-12-08T19:21:35.309Z,10.82
2022-12-08T19:26:39.043Z,10.95
2022-12-08T19:31:42.191Z,10.98
2022-12-08T19:36:44.978Z,9.20
2022-12-08T19:42:06.624Z,9.35
2022-12-08T19:47:09.640Z,9.43
2022-12-08T19:52:13.440Z,9.48
2022-12-08T19:57:17.094Z,9.05
2022-12-08T20:02:20.432Z,9.43
2022-12-08T20:07:22.704Z,9.48
2022-12-08T20:12:27.253Z,10.05
2022-12-08T20:17:29.746Z,9.27
2022-12-08T20:22:32.206Z,9.45
2022-12-08T20:27:35.137Z,10.60
2022-12-08T20:32:37.639Z,9.75
2022-12-08T20:37:39.943Z,9.35
2022-12-08T20:42:42.636Z,9.85
2022-12-08T20:47:46.853Z,9.95
2022-12-08T20:52:49.313Z,10.05
2022-12-08T20:57:51.781Z,11.45
2022-12-08T21:02:56.540Z,10.60
2022-12-08T21:07:58.955Z,10.73
2022-12-08T21:13:02.391Z,10.77
2022-12-08T21:18:04.969Z,10.48
2022-12-08T21:23:06.869Z,9.93
2022-12-08T21:28:08.986Z,10.05
2022-12-08T21:33:10.737Z,9.63
2022-12-08T21:38:12.771Z,10.48
2022-12-08T21:43:14.601Z,11.25
2022-12-08T21:48:16.448Z,10.23
2022-12-08T21:53:18.158Z,10.98
2022-12-08T21:58:20.065Z,10.63
2022-12-08T22:03:22.023Z,11.63
2022-12-08T22:08:24.093Z,10.85
2022-12-08T22:13:25.974Z,11.00
2022-12-08T22:18:28.155Z,11.25
2022-12-08T22:23:30.064Z,11.32
2022-12-08T22:28:35.405Z,10.75
2022-12-08T22:33:38.157Z,10.98
2022-12-08T22:38:40.885Z,10.93
2022-12-08T22:43:43.874Z,10.25
2022-12-08T22:48:45.708Z,10.82
2022-12-08T22:53:48.358Z,10.10
2022-12-08T22:58:51.206Z,9.45
2022-12-08T23:03:53.512Z,9.25
2022-12-08T23:08:56.165Z,8.63
2022-12-08T23:14:00.433Z,9.55
2022-12-08T23:19:02.309Z,9.82
2022-12-08T23:24:04.493Z,9.10
2022-12-08T23:29:06.251Z,9.43
2022-12-08T23:34:08.059Z,9.32
2022-12-08T23:39:11.072Z,10.18
2022-12-08T23:44:12.853Z,9.48
2022-12-08T23:49:14.747Z,9.02
2022-12-08T23:54:17.438Z,9.73
2022-12-08T23:59:19.369Z,9.07
